createdAt,value
2017-11-30T00:02:25.228Z,2.16
2017-11-30T00:04:59.813Z,2.17
2017-11-30T00:07:34.278Z,2.17
2017-11-30T00:10:13.937Z,2.15
2017-11-30T00:12:48.376Z,2.26
2017-11-30T00:15:23.038Z,2.33
2017-11-30T00:17:57.436Z,2.40
2017-11-30T00:20:31.773Z,2.41
2017-11-30T00:23:06.154Z,2.38
2017-11-30T00:25:40.324Z,2.40
2017-11-30T00:28:14.495Z,2.40
2017-11-30T00:30:48.885Z,2.53
2017-11-30T00:33:23.184Z,2.36
2017-11-30T00:35:57.361Z,2.32
2017-11-30T00:38:31.908Z,2.31
2017-11-30T00:41:06.331Z,2.31
2017-11-30T00:43:40.876Z,2.32
2017-11-30T00:46:15.162Z,2.43
2017-11-30T00:48:49.546Z,2.38
2017-11-30T00:51:24.017Z,2.44
2017-11-30T00:53:58.458Z,2.41
2017-11-30T00:56:32.947Z,2.47
2017-11-30T00:59:07.369Z,2.40
2017-11-30T01:01:41.847Z,2.44
2017-11-30T01:04:16.412Z,2.59
2017-11-30T01:06:50.888Z,2.54
2017-11-30T01:09:25.415Z,2.57
2017-11-30T01:11:59.885Z,2.63
2017-11-30T01:14:34.439Z,2.79
2017-11-30T01:17:08.853Z,2.71
2017-11-30T01:19:43.496Z,2.54
2017-11-30T01:22:17.859Z,2.57
2017-11-30T01:24:52.452Z,2.42
2017-11-30T01:27:27.171Z,2.44
2017-11-30T01:30:01.600Z,2.48
2017-11-30T01:32:35.974Z,2.38
2017-11-30T01:35:10.355Z,2.40
2017-11-30T01:37:44.843Z,2.35
2017-11-30T01:40:19.268Z,2.33
2017-11-30T01:42:53.840Z,2.29
2017-11-30T01:45:28.219Z,2.36
2017-11-30T01:48:02.834Z,2.34
2017-11-30T01:50:37.383Z,2.50
2017-11-30T01:53:11.891Z,2.35
2017-11-30T01:55:45.936Z,2.38
2017-11-30T01:58:20.360Z,2.40
2017-11-30T02:00:54.620Z,2.34
2017-11-30T02:03:29.076Z,2.09
2017-11-30T02:06:03.579Z,2.12
2017-11-30T02:08:38.067Z,2.16
2017-11-30T02:11:12.466Z,2.26
2017-11-30T02:13:46.990Z,2.45
2017-11-30T02:16:21.462Z,2.59
2017-11-30T02:18:56.061Z,2.46
2017-11-30T02:21:30.331Z,2.50
2017-11-30T02:24:04.871Z,2.55
2017-11-30T02:26:39.219Z,2.37
2017-11-30T02:29:13.721Z,2.40
2017-11-30T02:31:48.054Z,2.28
2017-11-30T02:34:22.215Z,2.30
2017-11-30T02:36:56.315Z,2.41
2017-11-30T02:39:30.837Z,2.46
2017-11-30T02:42:04.944Z,2.45
2017-11-30T02:44:39.483Z,2.56
2017-11-30T02:47:13.684Z,2.75
2017-11-30T02:49:47.800Z,2.70
2017-11-30T02:52:21.883Z,2.73
2017-11-30T02:54:56.284Z,2.65
2017-11-30T02:57:30.347Z,2.49
2017-11-30T03:02:44.643Z,2.49
2017-11-30T03:05:18.699Z,2.41
2017-11-30T03:07:52.897Z,2.46
2017-11-30T03:10:26.969Z,2.80
2017-11-30T03:13:01.491Z,2.99
2017-11-30T03:15:36.248Z,3.00
2017-11-30T03:18:10.764Z,2.88
2017-11-30T03:20:45.143Z,2.63
2017-11-30T03:23:19.703Z,2.44
2017-11-30T03:25:53.578Z,2.30
2017-11-30T03:28:27.897Z,2.13
2017-11-30T03:31:02.308Z,2.02
2017-11-30T03:33:36.829Z,1.74
2017-11-30T03:36:11.575Z,1.94
2017-11-30T03:38:46.223Z,2.00
2017-11-30T03:41:20.734Z,2.04
2017-11-30T03:43:55.243Z,2.01
2017-11-30T03:46:29.691Z,1.95
2017-11-30T03:49:04.291Z,1.95
2017-11-30T03:51:38.775Z,1.95
2017-11-30T03:54:13.320Z,2.02
2017-11-30T03:56:47.795Z,1.97
2017-11-30T03:59:22.426Z,1.92
2017-11-30T04:01:56.751Z,2.08
2017-11-30T04:04:31.097Z,2.03
2017-11-30T04:07:05.284Z,2.01
2017-11-30T04:09:39.763Z,2.01
2017-11-30T04:12:14.143Z,1.96
2017-11-30T04:14:48.583Z,1.96
2017-11-30T04:17:23.016Z,1.96
2017-11-30T04:19:57.779Z,1.86
2017-11-30T04:22:32.155Z,1.83
2017-11-30T04:25:11.676Z,1.05
2017-11-30T04:27:46.169Z,1.93
2017-11-30T04:30:20.569Z,1.83
2017-11-30T04:32:55.083Z,1.83
2017-11-30T04:35:29.612Z,1.85
2017-11-30T04:38:04.091Z,1.86
2017-11-30T04:40:38.731Z,1.93
2017-11-30T04:43:13.120Z,1.71
2017-11-30T04:45:47.500Z,1.59
2017-11-30T04:48:21.991Z,1.64
2017-11-30T04:50:56.468Z,1.70
2017-11-30T04:53:30.894Z,1.59
2017-11-30T04:56:05.392Z,1.61
2017-11-30T04:58:40.496Z,1.55
2017-11-30T05:01:14.919Z,1.55
2017-11-30T05:03:49.437Z,1.53
2017-11-30T05:06:23.811Z,1.52
2017-11-30T05:08:58.087Z,1.52
2017-11-30T05:11:32.475Z,1.45
2017-11-30T05:14:07.051Z,1.30
2017-11-30T05:16:41.467Z,1.17
2017-11-30T05:19:15.915Z,1.09
2017-11-30T05:21:50.312Z,1.07
2017-11-30T05:24:24.668Z,1.08
2017-11-30T05:26:59.068Z,1.15
2017-11-30T05:29:33.756Z,1.13
2017-11-30T05:32:08.012Z,1.18
2017-11-30T05:34:42.437Z,1.17
2017-11-30T05:37:16.927Z,1.06
2017-11-30T05:39:51.519Z,1.01
2017-11-30T05:42:25.955Z,0.98
2017-11-30T05:45:00.307Z,0.98
2017-11-30T05:47:34.787Z,1.10
2017-11-30T05:50:14.140Z,0.25
2017-11-30T05:52:48.755Z,1.09
2017-11-30T05:55:23.151Z,1.03
2017-11-30T05:57:57.659Z,1.05
2017-11-30T06:00:32.034Z,1.02
2017-11-30T06:03:06.523Z,0.99
2017-11-30T06:05:40.935Z,0.94
2017-11-30T06:08:15.371Z,1.04
2017-11-30T06:10:49.738Z,0.89
2017-11-30T06:13:24.245Z,1.09
2017-11-30T06:15:58.663Z,1.04
2017-11-30T06:18:33.032Z,1.01
2017-11-30T06:21:07.390Z,1.06
2017-11-30T06:23:41.916Z,1.05
2017-11-30T06:26:16.327Z,0.99
2017-11-30T06:28:50.871Z,0.95
2017-11-30T06:31:25.031Z,1.02
2017-11-30T06:33:59.353Z,1.12
2017-11-30T06:36:33.745Z,1.12
2017-11-30T06:39:08.244Z,1.12
2017-11-30T06:41:43.423Z,1.05
2017-11-30T06:44:17.985Z,1.03
2017-11-30T06:46:52.263Z,1.04
2017-11-30T06:49:26.758Z,1.05
2017-11-30T06:52:00.944Z,0.98
2017-11-30T06:54:35.466Z,1.01
2017-11-30T06:57:09.871Z,0.97
2017-11-30T06:59:44.415Z,0.90
2017-11-30T07:02:19.675Z,0.88
2017-11-30T07:04:54.127Z,0.93
2017-11-30T07:07:28.521Z,1.00
2017-11-30T07:10:06.222Z,1.09
2017-11-30T07:12:40.772Z,1.07
2017-11-30T07:15:15.271Z,1.08
2017-11-30T07:17:49.789Z,1.05
2017-11-30T07:20:24.160Z,1.01
2017-11-30T07:22:58.645Z,0.95
2017-11-30T07:25:33.417Z,1.03
2017-11-30T07:28:07.919Z,1.04
2017-11-30T07:30:42.103Z,1.13
2017-11-30T07:33:16.447Z,1.05
2017-11-30T07:35:50.952Z,1.09
2017-11-30T07:38:25.467Z,1.15
2017-11-30T07:40:59.931Z,1.21
2017-11-30T07:43:34.460Z,1.27
2017-11-30T07:46:08.820Z,1.19
2017-11-30T07:48:43.212Z,1.08
2017-11-30T07:51:17.619Z,1.11
2017-11-30T07:53:52.227Z,1.13
2017-11-30T07:56:26.794Z,1.11
2017-11-30T07:59:01.164Z,1.04
2017-11-30T08:01:35.567Z,1.02
2017-11-30T08:04:09.781Z,1.19
2017-11-30T08:06:44.220Z,1.20
2017-11-30T08:09:18.568Z,1.17
2017-11-30T08:11:53.012Z,1.09
2017-11-30T08:14:27.517Z,1.09
2017-11-30T08:17:01.945Z,1.02
2017-11-30T08:19:36.369Z,0.96
2017-11-30T08:22:10.744Z,0.96
2017-11-30T08:24:45.308Z,1.04
2017-11-30T08:27:20.423Z,1.13
2017-11-30T08:29:54.672Z,1.21
2017-11-30T08:32:29.576Z,1.19
2017-11-30T08:35:04.256Z,1.20
2017-11-30T08:37:38.683Z,1.18
2017-11-30T08:40:13.185Z,1.19
2017-11-30T08:42:47.676Z,1.14
2017-11-30T08:45:22.066Z,0.93
2017-11-30T08:47:56.464Z,1.10
2017-11-30T08:50:30.572Z,1.11
2017-11-30T08:53:05.097Z,1.16
2017-11-30T08:55:39.121Z,1.16
2017-11-30T08:58:13.633Z,1.19
2017-11-30T09:00:48.026Z,1.21
2017-11-30T09:03:22.623Z,1.25
2017-11-30T09:05:57.044Z,1.32
2017-11-30T09:08:31.515Z,1.33
2017-11-30T09:11:05.976Z,1.29
2017-11-30T09:13:40.544Z,1.33
2017-11-30T09:16:14.869Z,1.28
2017-11-30T09:18:49.295Z,1.21
2017-11-30T09:21:23.883Z,1.25
2017-11-30T09:23:58.327Z,1.10
2017-11-30T09:26:32.822Z,1.31
2017-11-30T09:29:07.305Z,1.27
2017-11-30T09:31:41.891Z,1.28
2017-11-30T09:34:16.357Z,1.26
2017-11-30T09:36:50.932Z,1.31
2017-11-30T09:39:25.289Z,1.27
2017-11-30T09:41:59.699Z,1.16
2017-11-30T09:44:34.190Z,1.28
2017-11-30T09:47:08.571Z,1.36
2017-11-30T09:49:43.105Z,1.42
2017-11-30T09:52:17.471Z,1.42
2017-11-30T09:54:51.868Z,1.50
2017-11-30T09:57:26.096Z,1.50
2017-11-30T10:00:01.104Z,1.50
2017-11-30T10:02:35.847Z,1.50
2017-11-30T10:05:10.203Z,1.43
2017-11-30T10:07:44.826Z,1.53
2017-11-30T10:10:19.184Z,1.52
2017-11-30T10:12:53.781Z,1.58
2017-11-30T10:15:28.177Z,1.66
2017-11-30T10:18:02.640Z,1.60
2017-11-30T10:20:37.148Z,1.62
2017-11-30T10:23:11.559Z,1.72
2017-11-30T10:25:46.036Z,1.69
2017-11-30T10:28:20.592Z,1.70
2017-11-30T10:30:55.379Z,1.70
2017-11-30T10:33:29.886Z,1.71
2017-11-30T10:36:04.876Z,1.74
2017-11-30T10:38:39.250Z,1.66
2017-11-30T10:41:14.122Z,1.70
2017-11-30T10:43:49.483Z,1.73
2017-11-30T10:46:24.031Z,1.71
2017-11-30T10:48:58.508Z,1.80
2017-11-30T10:51:33.011Z,1.78
2017-11-30T10:54:07.492Z,1.84
2017-11-30T10:56:41.986Z,1.81
2017-11-30T10:59:16.463Z,1.82
2017-11-30T11:01:50.846Z,1.88
2017-11-30T11:04:25.423Z,1.87
2017-11-30T11:06:59.847Z,1.90
2017-11-30T11:09:34.351Z,1.83
2017-11-30T11:12:09.523Z,1.83
2017-11-30T11:14:43.885Z,1.85
2017-11-30T11:17:18.283Z,1.90
2017-11-30T11:19:52.771Z,1.91
2017-11-30T11:22:27.173Z,1.85
2017-11-30T11:25:01.833Z,1.84
2017-11-30T11:27:36.202Z,1.85
2017-11-30T11:30:10.987Z,1.90
2017-11-30T11:32:45.492Z,1.84
2017-11-30T11:35:19.878Z,1.84
2017-11-30T11:37:54.491Z,1.92
2017-11-30T11:40:29.138Z,1.94
2017-11-30T11:43:03.535Z,2.02
2017-11-30T11:45:37.939Z,2.06
2017-11-30T11:48:12.429Z,1.99
2017-11-30T11:50:46.815Z,1.99
2017-11-30T11:53:21.357Z,1.98
2017-11-30T11:55:55.731Z,1.97
2017-11-30T11:58:30.238Z,1.97
2017-11-30T12:01:04.584Z,2.00
2017-11-30T12:03:39.100Z,1.97
2017-11-30T12:06:13.440Z,1.98
2017-11-30T12:08:47.943Z,1.97
2017-11-30T12:11:22.773Z,1.92
2017-11-30T12:13:57.253Z,1.85
2017-11-30T12:16:31.676Z,1.85
2017-11-30T12:19:06.193Z,1.77
2017-11-30T12:21:40.949Z,1.79
2017-11-30T12:24:15.528Z,1.75
2017-11-30T12:26:49.928Z,1.76
2017-11-30T12:29:24.436Z,1.72
2017-11-30T12:31:58.828Z,1.72
2017-11-30T12:34:33.386Z,1.64
2017-11-30T12:37:07.870Z,1.71
2017-11-30T12:39:42.500Z,1.69
2017-11-30T12:42:16.874Z,1.66
2017-11-30T12:44:52.287Z,1.65
2017-11-30T12:47:26.791Z,1.65
2017-11-30T12:50:01.405Z,1.60
2017-11-30T12:52:36.007Z,1.61
2017-11-30T12:55:10.356Z,1.56
2017-11-30T12:57:44.858Z,1.58
2017-11-30T13:00:19.126Z,1.54
2017-11-30T13:02:53.474Z,1.51
2017-11-30T13:05:27.634Z,1.51
2017-11-30T13:08:02.240Z,1.50
2017-11-30T13:10:36.357Z,1.54
2017-11-30T13:13:10.833Z,1.52
2017-11-30T13:15:45.008Z,1.53
2017-11-30T13:18:19.364Z,1.52
2017-11-30T13:20:53.964Z,1.10
2017-11-30T13:23:28.420Z,1.29
2017-11-30T13:26:02.774Z,1.48
2017-11-30T13:28:37.267Z,1.51
2017-11-30T13:31:11.722Z,1.50
2017-11-30T13:33:46.118Z,1.54
2017-11-30T13:36:20.477Z,1.54
2017-11-30T13:38:55.093Z,1.57
2017-11-30T13:41:29.498Z,1.58
2017-11-30T13:44:03.993Z,1.59
2017-11-30T13:46:38.364Z,1.59
2017-11-30T13:49:12.821Z,1.62
2017-11-30T13:51:47.276Z,1.63
2017-11-30T13:54:21.800Z,1.57
2017-11-30T13:56:56.198Z,1.66
2017-11-30T13:59:30.646Z,1.52
2017-11-30T14:02:05.020Z,1.68
2017-11-30T14:04:39.614Z,1.68
2017-11-30T14:07:14.213Z,1.65
2017-11-30T14:09:48.562Z,1.66
2017-11-30T14:12:23.007Z,1.62
2017-11-30T14:14:57.594Z,1.61
2017-11-30T14:17:32.098Z,1.64
2017-11-30T14:20:06.658Z,1.63
2017-11-30T14:22:41.278Z,1.58
2017-11-30T14:25:15.862Z,1.58
2017-11-30T14:27:50.359Z,1.60
2017-11-30T14:30:24.758Z,1.60
2017-11-30T14:32:59.354Z,1.58
2017-11-30T14:35:33.801Z,1.48
2017-11-30T14:38:08.305Z,1.50
2017-11-30T14:40:42.682Z,1.46
2017-11-30T14:43:17.431Z,1.47
2017-11-30T14:45:51.967Z,1.41
2017-11-30T14:48:26.535Z,1.22
2017-11-30T14:51:01.018Z,1.42
2017-11-30T14:53:35.595Z,1.43
2017-11-30T14:56:10.033Z,1.43
2017-11-30T14:58:45.250Z,1.44
2017-11-30T15:01:19.783Z,1.46
2017-11-30T15:03:54.296Z,1.52
2017-11-30T15:06:28.717Z,1.55
2017-11-30T15:09:03.267Z,1.61
2017-11-30T15:11:39.181Z,1.65
2017-11-30T15:14:13.702Z,1.69
2017-11-30T15:16:48.074Z,1.72
2017-11-30T15:19:22.622Z,1.73
2017-11-30T15:21:57.114Z,1.71
2017-11-30T15:24:31.610Z,1.81
2017-11-30T15:27:05.985Z,1.81
2017-11-30T15:29:40.373Z,1.84
2017-11-30T15:32:14.772Z,1.85
2017-11-30T15:34:49.328Z,1.83
2017-11-30T15:37:23.730Z,1.87
2017-11-30T15:39:58.082Z,1.88
2017-11-30T15:42:32.481Z,1.91
2017-11-30T15:45:07.183Z,0.49
2017-11-30T15:47:41.706Z,1.91
2017-11-30T15:50:16.240Z,1.88
2017-11-30T15:52:50.674Z,1.89
2017-11-30T15:55:25.497Z,1.92
2017-11-30T15:57:59.965Z,1.92
2017-11-30T16:00:34.341Z,1.94
2017-11-30T16:03:08.934Z,1.66
2017-11-30T16:05:43.370Z,2.01
2017-11-30T16:08:17.954Z,2.11
2017-11-30T16:10:52.497Z,2.08
2017-11-30T16:13:27.675Z,2.10
2017-11-30T16:16:02.198Z,2.13
2017-11-30T16:18:37.318Z,2.19
2017-11-30T16:21:12.506Z,2.18
2017-11-30T16:23:47.013Z,2.18
2017-11-30T16:26:21.447Z,2.21
2017-11-30T16:28:56.042Z,2.25
2017-11-30T16:31:30.450Z,2.22
2017-11-30T16:34:04.977Z,2.30
2017-11-30T16:36:39.397Z,2.33
2017-11-30T16:39:13.794Z,2.33
2017-11-30T16:41:48.270Z,2.32
2017-11-30T16:44:22.718Z,2.33
2017-11-30T16:46:57.087Z,2.33
2017-11-30T16:49:31.454Z,2.38
2017-11-30T16:52:05.878Z,2.39
2017-11-30T16:54:40.202Z,2.40
2017-11-30T16:57:15.684Z,2.39
2017-11-30T16:59:50.235Z,2.31
2017-11-30T17:02:24.626Z,2.47
2017-11-30T17:04:59.107Z,2.47
2017-11-30T17:07:33.338Z,2.51
2017-11-30T17:10:07.791Z,2.52
2017-11-30T17:12:42.362Z,2.50
2017-11-30T17:15:17.582Z,2.51
2017-11-30T17:17:52.139Z,2.48
2017-11-30T17:20:26.722Z,2.51
2017-11-30T17:23:01.202Z,2.53
2017-11-30T17:25:35.638Z,2.53
2017-11-30T17:28:10.194Z,2.53
2017-11-30T17:30:44.763Z,2.52
2017-11-30T17:33:19.254Z,2.58
2017-11-30T17:35:53.640Z,2.60
2017-11-30T17:38:28.002Z,2.63
2017-11-30T17:41:02.890Z,2.65
2017-11-30T17:43:37.302Z,2.66
2017-11-30T17:46:11.881Z,2.64
2017-11-30T17:48:46.318Z,2.66
2017-11-30T17:51:23.711Z,2.69
2017-11-30T17:53:58.310Z,2.69
2017-11-30T17:56:32.750Z,2.71
2017-11-30T17:59:07.278Z,2.74
2017-11-30T18:01:41.635Z,2.77
2017-11-30T18:04:16.290Z,2.81
2017-11-30T18:06:50.854Z,2.79
2017-11-30T18:09:25.346Z,2.81
2017-11-30T18:11:59.809Z,2.81
2017-11-30T18:14:34.337Z,2.80
2017-11-30T18:17:09.041Z,2.86
2017-11-30T18:19:43.418Z,2.85
2017-11-30T18:22:17.770Z,2.89
2017-11-30T18:24:52.347Z,2.91
2017-11-30T18:27:26.804Z,2.91
2017-11-30T18:30:01.283Z,2.92
2017-11-30T18:32:35.703Z,2.94
2017-11-30T18:35:10.135Z,2.99
2017-11-30T18:37:44.294Z,2.97
2017-11-30T18:40:18.475Z,2.97
2017-11-30T18:42:52.979Z,2.99
2017-11-30T18:45:27.721Z,3.05
2017-11-30T18:48:02.104Z,3.05
2017-11-30T18:50:36.442Z,3.06
2017-11-30T18:53:11.027Z,3.06
2017-11-30T18:55:45.658Z,3.06
2017-11-30T18:58:20.177Z,3.02
2017-11-30T19:00:54.677Z,3.03
2017-11-30T19:03:29.898Z,3.06
2017-11-30T19:06:04.410Z,3.03
2017-11-30T19:08:38.947Z,3.06
2017-11-30T19:11:14.155Z,3.03
2017-11-30T19:13:48.633Z,2.98
2017-11-30T19:16:23.131Z,3.00
2017-11-30T19:18:57.715Z,2.97
2017-11-30T19:21:32.068Z,2.98
2017-11-30T19:24:06.592Z,3.04
2017-11-30T19:26:40.979Z,2.97
2017-11-30T19:29:15.582Z,3.00
2017-11-30T19:31:52.126Z,3.00
2017-11-30T19:34:26.542Z,3.00
2017-11-30T19:37:02.655Z,3.06
2017-11-30T19:39:37.271Z,3.02
2017-11-30T19:42:11.655Z,3.13
2017-11-30T19:44:46.165Z,3.09
2017-11-30T19:47:21.580Z,3.07
2017-11-30T19:49:56.790Z,3.04
2017-11-30T19:52:31.305Z,3.04
2017-11-30T19:55:05.744Z,2.15
2017-11-30T19:57:40.898Z,3.11
2017-11-30T20:00:15.415Z,3.10
2017-11-30T20:02:49.828Z,3.20
2017-11-30T20:05:24.700Z,3.05
2017-11-30T20:07:59.195Z,3.09
2017-11-30T20:10:33.672Z,3.16
2017-11-30T20:13:08.178Z,3.08
2017-11-30T20:15:42.564Z,3.20
2017-11-30T20:18:17.064Z,3.17
2017-11-30T20:20:53.062Z,3.20
2017-11-30T20:23:27.686Z,3.20
2017-11-30T20:26:02.133Z,3.13
2017-11-30T20:28:36.794Z,3.09
2017-11-30T20:31:11.422Z,3.06
2017-11-30T20:33:46.243Z,3.08
2017-11-30T20:36:20.743Z,3.07
2017-11-30T20:38:55.298Z,3.18
2017-11-30T20:41:29.691Z,3.26
2017-11-30T20:44:04.153Z,3.17
2017-11-30T20:46:41.098Z,3.18
2017-11-30T20:49:18.371Z,3.08
2017-11-30T20:51:57.694Z,3.15
2017-11-30T20:54:34.210Z,3.11
2017-11-30T20:57:08.771Z,3.15
2017-11-30T20:59:43.238Z,3.13
2017-11-30T21:02:17.723Z,3.14
2017-11-30T21:04:52.236Z,3.06
2017-11-30T21:07:27.405Z,3.02
2017-11-30T21:10:01.871Z,2.94
2017-11-30T21:12:40.424Z,2.90
2017-11-30T21:15:15.055Z,2.92
2017-11-30T21:17:49.546Z,2.95
2017-11-30T21:20:23.993Z,2.94
2017-11-30T21:22:58.419Z,2.93
2017-11-30T21:25:32.917Z,2.99
2017-11-30T21:28:07.414Z,3.07
2017-11-30T21:30:41.906Z,3.05
2017-11-30T21:33:16.433Z,3.04
2017-11-30T21:35:50.790Z,3.03
2017-11-30T21:38:25.459Z,3.07
2017-11-30T21:40:59.889Z,3.17
2017-11-30T21:43:34.259Z,3.21
2017-11-30T21:46:08.651Z,3.19
2017-11-30T21:48:43.222Z,3.28
2017-11-30T21:51:20.375Z,3.47
2017-11-30T21:53:55.001Z,3.35
2017-11-30T21:56:29.397Z,3.47
2017-11-30T21:59:03.898Z,3.41
2017-11-30T22:01:38.282Z,3.47
2017-11-30T22:04:13.013Z,3.42
2017-11-30T22:06:47.622Z,3.28
2017-11-30T22:09:22.113Z,3.20
2017-11-30T22:11:56.562Z,3.03
2017-11-30T22:14:31.195Z,3.09
2017-11-30T22:17:06.218Z,3.12
2017-11-30T22:19:40.606Z,3.15
2017-11-30T22:22:21.918Z,3.14
2017-11-30T22:24:56.509Z,3.08
2017-11-30T22:27:33.007Z,2.97
2017-11-30T22:30:07.525Z,2.63
2017-11-30T22:32:42.088Z,3.39
2017-11-30T22:35:16.546Z,3.44
2017-11-30T22:37:51.060Z,3.38
2017-11-30T22:40:25.514Z,3.41
2017-11-30T22:43:00.074Z,3.42
2017-11-30T22:45:34.839Z,3.32
2017-11-30T22:48:09.378Z,3.39
2017-11-30T22:50:43.498Z,3.40
2017-11-30T22:53:18.019Z,3.41
2017-11-30T22:55:52.378Z,3.33
2017-11-30T22:58:27.257Z,3.39
2017-11-30T23:01:02.006Z,3.41
2017-11-30T23:03:36.425Z,3.32
2017-11-30T23:06:10.866Z,3.30
2017-11-30T23:08:45.499Z,3.30
2017-11-30T23:11:21.064Z,3.18
2017-11-30T23:13:55.565Z,3.17
2017-11-30T23:16:30.014Z,3.14
2017-11-30T23:19:04.399Z,3.18
2017-11-30T23:21:38.799Z,3.05
2017-11-30T23:24:12.837Z,3.06
2017-11-30T23:26:47.244Z,3.08
2017-11-30T23:29:22.393Z,3.12
2017-11-30T23:31:56.666Z,3.10
2017-11-30T23:34:31.293Z,3.29
2017-11-30T23:37:06.310Z,3.20
2017-11-30T23:39:40.898Z,3.20
2017-11-30T23:42:15.119Z,3.16
2017-11-30T23:44:49.640Z,3.34
2017-11-30T23:47:24.051Z,3.19
2017-11-30T23:49:58.507Z,3.33
2017-11-30T23:52:32.884Z,3.16
2017-11-30T23:55:07.493Z,3.07
2017-11-30T23:57:41.922Z,3.07
